createdAt,value
2018-12-21T00:00:54.977Z,9.43
2018-12-21T00:01:55.005Z,9.50
2018-12-21T00:02:55.033Z,9.43
2018-12-21T00:03:55.061Z,9.40
2018-12-21T00:04:55.089Z,9.35
2018-12-21T00:05:55.116Z,9.39
2018-12-21T00:06:55.144Z,9.36
2018-12-21T00:07:55.221Z,9.38
2018-12-21T00:08:55.200Z,9.31
2018-12-21T00:09:55.230Z,9.38
2018-12-21T00:10:55.254Z,9.31
2018-12-21T00:11:55.283Z,9.32
2018-12-21T00:12:55.310Z,9.38
2018-12-21T00:13:55.339Z,9.35
2018-12-21T00:14:55.368Z,9.24
2018-12-21T00:15:55.392Z,9.26
2018-12-21T00:16:55.422Z,9.20
2018-12-21T00:17:55.499Z,9.28
2018-12-21T00:18:55.477Z,9.21
2018-12-21T00:19:55.506Z,9.29
2018-12-21T00:20:55.536Z,9.15
2018-12-21T00:21:55.561Z,9.15
2018-12-21T00:22:55.589Z,9.13
2018-12-21T00:23:55.616Z,9.18
2018-12-21T00:24:55.644Z,9.14
2018-12-21T00:25:55.671Z,9.15
2018-12-21T00:26:55.701Z,9.14
2018-12-21T00:27:55.727Z,9.13
2018-12-21T00:28:55.755Z,9.13
2018-12-21T00:29:55.782Z,9.24
2018-12-21T00:30:55.809Z,9.17
2018-12-21T00:31:55.837Z,9.33
2018-12-21T00:32:55.866Z,9.31
2018-12-21T00:33:55.893Z,9.33
2018-12-21T00:34:55.920Z,9.35
2018-12-21T00:35:55.950Z,9.38
2018-12-21T00:36:55.976Z,9.29
2018-12-21T00:37:56.005Z,9.31
2018-12-21T00:38:56.032Z,9.29
2018-12-21T00:39:56.060Z,9.31
2018-12-21T00:40:56.178Z,9.29
2018-12-21T00:41:56.117Z,9.38
2018-12-21T00:42:56.143Z,9.46
2018-12-21T00:43:56.173Z,9.40
2018-12-21T00:44:56.201Z,9.51
2018-12-21T00:45:56.228Z,9.39
2018-12-21T00:46:56.254Z,9.51
2018-12-21T00:47:56.282Z,9.50
2018-12-21T00:48:56.310Z,9.51
2018-12-21T00:49:56.338Z,9.48
2018-12-21T00:50:56.367Z,9.54
2018-12-21T00:51:56.396Z,9.46
2018-12-21T00:52:56.422Z,9.53
2018-12-21T00:53:56.510Z,9.53
2018-12-21T00:54:56.479Z,9.46
2018-12-21T00:55:56.508Z,9.58
2018-12-21T00:56:56.534Z,9.48
2018-12-21T00:57:56.562Z,9.48
2018-12-21T00:58:56.604Z,9.50
2018-12-21T00:59:56.616Z,9.54
2018-12-21T01:00:56.644Z,9.54
2018-12-21T01:01:56.672Z,9.50
2018-12-21T01:02:56.700Z,9.50
2018-12-21T01:03:56.730Z,9.42
2018-12-21T01:04:56.757Z,9.51
2018-12-21T01:05:56.785Z,9.58
2018-12-21T01:06:56.812Z,9.56
2018-12-21T01:07:56.843Z,9.57
2018-12-21T01:08:56.868Z,9.60
2018-12-21T01:09:56.896Z,9.56
2018-12-21T01:10:56.923Z,9.56
2018-12-21T01:11:56.953Z,9.57
2018-12-21T01:12:56.980Z,9.58
2018-12-21T01:13:57.008Z,9.60
2018-12-21T01:14:57.035Z,9.53
2018-12-21T01:15:57.063Z,9.48
2018-12-21T01:16:57.090Z,9.51
2018-12-21T01:17:57.120Z,9.47
2018-12-21T01:18:57.147Z,9.43
2018-12-21T01:19:57.176Z,9.46
2018-12-21T01:20:57.206Z,9.47
2018-12-21T01:21:57.231Z,9.36
2018-12-21T01:22:57.258Z,9.40
2018-12-21T01:23:57.288Z,9.40
2018-12-21T01:24:57.317Z,9.46
2018-12-21T01:25:57.345Z,9.40
2018-12-21T01:26:57.372Z,9.46
2018-12-21T01:27:57.398Z,9.51
2018-12-21T01:28:57.428Z,9.42
2018-12-21T01:29:57.456Z,9.51
2018-12-21T01:30:57.482Z,9.50
2018-12-21T01:31:57.510Z,9.48
2018-12-21T01:32:57.540Z,9.50
2018-12-21T01:33:57.566Z,9.50
2018-12-21T01:34:57.594Z,9.54
2018-12-21T01:35:57.622Z,9.61
2018-12-21T01:36:57.652Z,9.57
2018-12-21T01:37:57.678Z,9.57
2018-12-21T01:38:57.706Z,9.54
2018-12-21T01:39:57.784Z,9.50
2018-12-21T01:40:57.763Z,9.54
2018-12-21T01:41:57.790Z,9.56
2018-12-21T01:42:57.819Z,9.56
2018-12-21T01:43:57.846Z,9.57
2018-12-21T01:44:57.875Z,9.57
2018-12-21T01:45:57.902Z,9.65
2018-12-21T01:46:57.929Z,9.53
2018-12-21T01:47:57.958Z,9.56
2018-12-21T01:48:57.986Z,9.65
2018-12-21T01:49:58.014Z,9.65
2018-12-21T01:50:58.043Z,9.66
2018-12-21T01:51:58.073Z,9.68
2018-12-21T01:52:58.098Z,9.69
2018-12-21T01:53:58.126Z,9.68
2018-12-21T01:54:58.152Z,9.64
2018-12-21T01:55:58.181Z,9.66
2018-12-21T01:56:58.209Z,9.72
2018-12-21T01:57:58.238Z,9.75
2018-12-21T01:58:58.416Z,9.76
2018-12-21T01:59:58.293Z,9.68
2018-12-21T02:00:58.324Z,9.64
2018-12-21T02:01:58.351Z,9.72
2018-12-21T02:02:58.377Z,9.66
2018-12-21T02:03:58.405Z,9.66
2018-12-21T02:04:58.434Z,9.64
2018-12-21T02:05:58.462Z,9.68
2018-12-21T02:06:58.489Z,9.65
2018-12-21T02:07:58.517Z,9.69
2018-12-21T02:08:58.547Z,9.65
2018-12-21T02:09:58.575Z,9.66
2018-12-21T02:10:58.602Z,9.64
2018-12-21T02:11:58.629Z,9.65
2018-12-21T02:12:58.657Z,9.61
2018-12-21T02:13:58.687Z,9.65
2018-12-21T02:14:58.713Z,9.57
2018-12-21T02:15:58.740Z,9.57
2018-12-21T02:16:58.769Z,9.57
2018-12-21T02:17:58.799Z,9.56
2018-12-21T02:18:58.823Z,9.57
2018-12-21T02:19:58.853Z,9.57
2018-12-21T02:20:58.881Z,9.57
2018-12-21T02:21:58.909Z,9.53
2018-12-21T02:22:58.938Z,9.69
2018-12-21T02:23:58.968Z,9.65
2018-12-21T02:24:58.993Z,9.68
2018-12-21T02:25:59.022Z,9.58
2018-12-21T02:26:59.049Z,9.57
2018-12-21T02:27:59.076Z,9.57
2018-12-21T02:28:59.104Z,9.54
2018-12-21T02:29:59.136Z,9.56
2018-12-21T02:30:59.159Z,9.50
2018-12-21T02:31:59.188Z,9.57
2018-12-21T02:32:59.217Z,9.53
2018-12-21T02:33:59.244Z,9.61
2018-12-21T02:34:59.272Z,9.58
2018-12-21T02:35:59.299Z,9.60
2018-12-21T02:36:59.327Z,9.57
2018-12-21T02:37:59.357Z,9.56
2018-12-21T02:38:59.384Z,9.50
2018-12-21T02:39:59.411Z,9.56
2018-12-21T02:40:59.440Z,9.56
2018-12-21T02:41:59.468Z,9.51
2018-12-21T02:42:59.495Z,9.54
2018-12-21T02:43:59.524Z,9.53
2018-12-21T02:44:59.685Z,9.61
2018-12-21T02:45:59.578Z,9.57
2018-12-21T02:46:59.604Z,9.64
2018-12-21T02:47:59.633Z,9.53
2018-12-21T02:48:59.661Z,9.51
2018-12-21T02:49:59.689Z,9.54
2018-12-21T02:50:59.718Z,9.60
2018-12-21T02:52:05.351Z,9.53
2018-12-21T02:52:59.773Z,9.50
2018-12-21T02:53:59.800Z,9.51
2018-12-21T02:54:59.830Z,9.57
2018-12-21T02:55:59.856Z,9.54
2018-12-21T02:56:59.888Z,9.54
2018-12-21T02:57:59.911Z,9.50
2018-12-21T02:58:59.938Z,9.48
2018-12-21T02:59:59.966Z,9.57
2018-12-21T03:00:59.996Z,9.57
2018-12-21T03:02:00.023Z,9.53
2018-12-21T03:03:00.051Z,9.57
2018-12-21T03:04:00.077Z,9.58
2018-12-21T03:05:00.106Z,9.61
2018-12-21T03:06:00.135Z,9.57
2018-12-21T03:07:00.162Z,9.58
2018-12-21T03:08:00.193Z,9.71
2018-12-21T03:09:00.216Z,9.66
2018-12-21T03:10:00.251Z,9.66
2018-12-21T03:11:00.274Z,9.71
2018-12-21T03:12:00.301Z,9.66
2018-12-21T03:13:00.329Z,9.64
2018-12-21T03:14:00.406Z,9.69
2018-12-21T03:15:00.385Z,9.74
2018-12-21T03:16:00.414Z,9.66
2018-12-21T03:17:00.439Z,9.65
2018-12-21T03:18:00.467Z,9.69
2018-12-21T03:19:00.494Z,9.53
2018-12-21T03:20:00.532Z,9.57
2018-12-21T03:21:00.551Z,9.54
2018-12-21T03:22:00.580Z,9.69
2018-12-21T03:23:00.607Z,9.71
2018-12-21T03:24:00.636Z,9.72
2018-12-21T03:25:00.663Z,9.69
2018-12-21T03:26:00.692Z,9.68
2018-12-21T03:27:00.719Z,9.66
2018-12-21T03:28:00.745Z,9.87
2018-12-21T03:29:00.776Z,9.83
2018-12-21T03:30:00.803Z,9.91
2018-12-21T03:31:00.831Z,9.96
2018-12-21T03:32:00.860Z,9.90
2018-12-21T03:33:00.888Z,9.97
2018-12-21T03:34:00.916Z,9.87
2018-12-21T03:35:00.948Z,9.91
2018-12-21T03:36:00.983Z,9.89
2018-12-21T03:37:00.999Z,9.91
2018-12-21T03:38:01.025Z,9.87
2018-12-21T03:39:01.054Z,9.91
2018-12-21T03:40:01.086Z,9.83
2018-12-21T03:41:01.119Z,9.86
2018-12-21T03:42:01.140Z,9.91
2018-12-21T03:43:01.166Z,10.05
2018-12-21T03:44:01.195Z,10.08
2018-12-21T03:45:01.223Z,10.09
2018-12-21T03:46:01.256Z,10.02
2018-12-21T03:47:01.282Z,10.09
2018-12-21T03:48:01.307Z,10.12
2018-12-21T03:49:01.334Z,10.20
2018-12-21T03:50:01.363Z,10.11
2018-12-21T03:51:01.399Z,10.14
2018-12-21T03:52:01.419Z,10.05
2018-12-21T03:53:01.446Z,10.14
2018-12-21T03:54:01.485Z,10.05
2018-12-21T03:55:01.510Z,9.97
2018-12-21T03:56:01.530Z,9.96
2018-12-21T03:57:01.562Z,9.93
2018-12-21T03:58:01.589Z,9.89
2018-12-21T03:59:01.613Z,9.89
2018-12-21T04:00:01.646Z,9.99
2018-12-21T04:01:01.672Z,10.11
2018-12-21T04:02:01.699Z,10.08
2018-12-21T04:03:01.729Z,10.08
2018-12-21T04:04:01.754Z,10.09
2018-12-21T04:05:01.785Z,10.12
2018-12-21T04:06:01.811Z,9.97
2018-12-21T04:07:01.837Z,9.96
2018-12-21T04:08:01.871Z,10.04
2018-12-21T04:09:01.893Z,9.90
2018-12-21T04:10:01.937Z,9.84
2018-12-21T04:11:01.948Z,9.91
2018-12-21T04:12:01.978Z,9.81
2018-12-21T04:13:02.005Z,9.78
2018-12-21T04:14:02.032Z,9.81
2018-12-21T04:15:02.062Z,9.86
2018-12-21T04:16:02.091Z,9.86
2018-12-21T04:17:02.116Z,9.94
2018-12-21T04:18:02.146Z,10.01
2018-12-21T04:19:02.177Z,10.05
2018-12-21T04:20:02.201Z,10.07
2018-12-21T04:21:02.231Z,10.11
2018-12-21T04:22:02.259Z,10.18
2018-12-21T04:23:02.287Z,10.27
2018-12-21T04:24:02.314Z,10.32
2018-12-21T04:25:02.342Z,10.32
2018-12-21T04:26:02.372Z,10.33
2018-12-21T04:27:02.397Z,10.20
2018-12-21T04:28:02.428Z,10.17
2018-12-21T04:29:02.566Z,10.17
2018-12-21T04:30:02.493Z,10.22
2018-12-21T04:31:02.510Z,10.20
2018-12-21T04:32:02.536Z,10.12
2018-12-21T04:33:02.566Z,10.11
2018-12-21T04:34:02.598Z,10.14
2018-12-21T04:35:02.827Z,10.11
2018-12-21T04:36:02.652Z,10.29
2018-12-21T04:37:02.681Z,10.32
2018-12-21T04:38:02.709Z,10.26
2018-12-21T04:39:02.735Z,10.36
2018-12-21T04:40:02.765Z,10.38
2018-12-21T04:41:02.795Z,10.30
2018-12-21T04:42:02.819Z,10.33
2018-12-21T04:43:02.847Z,10.32
2018-12-21T04:44:02.881Z,10.25
2018-12-21T04:45:02.904Z,10.32
2018-12-21T04:46:02.932Z,10.29
2018-12-21T04:47:02.959Z,10.33
2018-12-21T04:48:02.987Z,10.25
2018-12-21T04:49:03.018Z,10.29
2018-12-21T04:50:03.045Z,10.33
2018-12-21T04:51:03.072Z,10.29
2018-12-21T04:52:03.103Z,10.23
2018-12-21T04:53:03.130Z,10.32
2018-12-21T04:54:03.158Z,10.32
2018-12-21T04:55:03.185Z,10.36
2018-12-21T04:56:03.220Z,10.36
2018-12-21T04:57:03.244Z,10.40
2018-12-21T04:58:03.273Z,10.40
2018-12-21T04:59:03.298Z,10.41
2018-12-21T05:00:03.327Z,10.44
2018-12-21T05:01:03.355Z,10.41
2018-12-21T05:02:03.387Z,10.41
2018-12-21T05:03:03.413Z,10.38
2018-12-21T05:04:03.440Z,10.40
2018-12-21T05:05:03.470Z,10.41
2018-12-21T05:06:03.503Z,10.56
2018-12-21T05:07:12.063Z,10.44
2018-12-21T05:08:03.554Z,10.42
2018-12-21T05:09:03.581Z,10.56
2018-12-21T05:10:03.615Z,10.61
2018-12-21T05:11:03.639Z,10.52
2018-12-21T05:12:03.666Z,10.51
2018-12-21T05:13:03.695Z,10.61
2018-12-21T05:14:03.723Z,10.56
2018-12-21T05:15:03.751Z,10.53
2018-12-21T05:16:03.779Z,10.56
2018-12-21T05:17:03.810Z,10.51
2018-12-21T05:18:03.838Z,10.56
2018-12-21T05:19:03.866Z,10.53
2018-12-21T05:20:03.894Z,10.52
2018-12-21T05:21:03.922Z,10.52
2018-12-21T05:22:03.952Z,10.60
2018-12-21T05:23:03.984Z,10.53
2018-12-21T05:24:04.100Z,10.51
2018-12-21T05:25:04.036Z,10.55
2018-12-21T05:26:04.068Z,10.48
2018-12-21T05:27:04.092Z,10.47
2018-12-21T05:28:04.121Z,10.45
2018-12-21T05:29:04.153Z,10.44
2018-12-21T05:30:04.181Z,10.48
2018-12-21T05:31:04.207Z,10.41
2018-12-21T05:32:04.242Z,10.44
2018-12-21T05:33:04.266Z,10.38
2018-12-21T05:34:04.294Z,10.42
2018-12-21T05:35:04.327Z,10.38
2018-12-21T05:36:04.350Z,10.36
2018-12-21T05:37:04.378Z,10.38
2018-12-21T05:38:04.415Z,10.38
2018-12-21T05:39:04.434Z,10.36
2018-12-21T05:40:04.465Z,10.29
2018-12-21T05:41:04.491Z,10.32
2018-12-21T05:42:04.521Z,10.26
2018-12-21T05:43:04.551Z,10.27
2018-12-21T05:44:04.581Z,10.33
2018-12-21T05:45:04.608Z,10.36
2018-12-21T05:46:04.636Z,10.23
2018-12-21T05:47:04.664Z,10.20
2018-12-21T05:48:04.692Z,10.18
2018-12-21T05:49:04.720Z,10.14
2018-12-21T05:50:04.749Z,10.08
2018-12-21T05:51:04.777Z,10.05
2018-12-21T05:52:04.805Z,10.04
2018-12-21T05:53:04.835Z,10.08
2018-12-21T05:54:04.863Z,10.11
2018-12-21T05:55:04.892Z,10.07
2018-12-21T05:56:04.920Z,9.94
2018-12-21T05:57:04.953Z,9.97
2018-12-21T05:58:04.977Z,9.84
2018-12-21T05:59:05.007Z,9.79
2018-12-21T06:00:05.034Z,9.71
2018-12-21T06:01:05.065Z,9.66
2018-12-21T06:02:05.509Z,9.57
2018-12-21T06:03:05.119Z,9.56
2018-12-21T06:04:05.148Z,9.56
2018-12-21T06:05:05.177Z,9.40
2018-12-21T06:06:05.207Z,9.47
2018-12-21T06:07:05.233Z,9.48
2018-12-21T06:08:05.262Z,9.51
2018-12-21T06:09:05.291Z,9.56
2018-12-21T06:10:05.319Z,9.56
2018-12-21T06:11:05.347Z,9.60
2018-12-21T06:12:05.373Z,9.61
2018-12-21T06:13:05.406Z,9.64
2018-12-21T06:14:05.432Z,9.69
2018-12-21T06:15:05.459Z,9.58
2018-12-21T06:16:05.489Z,9.57
2018-12-21T06:17:05.517Z,9.54
2018-12-21T06:18:05.547Z,9.57
2018-12-21T06:19:05.574Z,9.64
2018-12-21T06:20:05.603Z,9.74
2018-12-21T06:21:05.632Z,9.81
2018-12-21T06:22:05.664Z,9.68
2018-12-21T06:23:09.634Z,9.57
2018-12-21T06:24:05.715Z,9.64
2018-12-21T06:25:05.745Z,9.68
2018-12-21T06:26:05.771Z,9.75
2018-12-21T06:27:05.799Z,9.74
2018-12-21T06:28:05.830Z,9.78
2018-12-21T06:29:05.857Z,9.79
2018-12-21T06:30:05.885Z,9.83
2018-12-21T06:31:05.913Z,9.97
2018-12-21T06:32:05.943Z,9.89
2018-12-21T06:33:05.970Z,9.99
2018-12-21T06:34:05.999Z,9.86
2018-12-21T06:35:06.026Z,9.84
2018-12-21T06:36:06.053Z,9.83
2018-12-21T06:37:06.081Z,9.78
2018-12-21T06:38:06.113Z,9.76
2018-12-21T06:39:06.137Z,9.78
2018-12-21T06:40:06.167Z,9.79
2018-12-21T06:41:06.195Z,9.89
2018-12-21T06:42:06.224Z,9.81
2018-12-21T06:43:06.252Z,9.97
2018-12-21T06:44:06.279Z,9.96
2018-12-21T06:45:06.308Z,10.07
2018-12-21T06:46:13.988Z,10.04
2018-12-21T06:47:06.366Z,10.08
2018-12-21T06:48:06.396Z,10.05
2018-12-21T06:49:06.425Z,10.07
2018-12-21T06:50:06.450Z,10.08
2018-12-21T06:51:06.477Z,10.08
2018-12-21T06:52:06.506Z,10.07
2018-12-21T06:53:06.534Z,10.04
2018-12-21T06:54:06.564Z,10.04
2018-12-21T06:55:06.594Z,10.11
2018-12-21T06:56:06.618Z,10.08
2018-12-21T06:57:06.648Z,10.11
2018-12-21T06:58:06.675Z,10.12
2018-12-21T06:59:06.702Z,10.08
2018-12-21T07:00:06.733Z,10.08
2018-12-21T07:01:06.760Z,10.08
2018-12-21T07:02:06.793Z,10.01
2018-12-21T07:03:06.817Z,10.07
2018-12-21T07:04:06.845Z,10.11
2018-12-21T07:05:06.875Z,10.04
2018-12-21T07:06:06.903Z,10.07
2018-12-21T07:07:06.930Z,10.04
2018-12-21T07:08:06.959Z,9.96
2018-12-21T07:09:06.987Z,9.96
2018-12-21T07:10:07.015Z,9.93
2018-12-21T07:11:07.042Z,9.93
2018-12-21T07:12:07.071Z,9.90
2018-12-21T07:13:07.101Z,9.91
2018-12-21T07:14:07.129Z,9.90
2018-12-21T07:15:07.155Z,9.93
2018-12-21T07:16:07.185Z,9.96
2018-12-21T07:17:07.213Z,9.90
2018-12-21T07:18:07.241Z,9.96
2018-12-21T07:19:07.268Z,9.93
2018-12-21T07:20:07.299Z,9.91
2018-12-21T07:21:07.326Z,9.91
2018-12-21T07:22:07.357Z,9.91
2018-12-21T07:23:07.381Z,9.87
2018-12-21T07:24:07.408Z,9.84
2018-12-21T07:25:07.438Z,9.79
2018-12-21T07:26:07.467Z,9.74
2018-12-21T07:27:07.493Z,9.66
2018-12-21T07:28:07.522Z,9.71
2018-12-21T07:29:07.551Z,9.56
2018-12-21T07:30:07.580Z,9.65
2018-12-21T07:31:07.607Z,9.54
2018-12-21T07:32:07.640Z,9.56
2018-12-21T07:33:07.663Z,9.46
2018-12-21T07:34:07.692Z,9.48
2018-12-21T07:35:07.718Z,9.58
2018-12-21T07:36:08.608Z,9.57
2018-12-21T07:37:07.776Z,9.58
2018-12-21T07:38:07.804Z,9.66
2018-12-21T07:39:07.832Z,9.66
2018-12-21T07:40:07.858Z,9.54
2018-12-21T07:41:10.042Z,9.56
2018-12-21T07:42:07.917Z,9.50
2018-12-21T07:43:07.942Z,9.57
2018-12-21T07:44:07.973Z,9.60
2018-12-21T07:45:08.001Z,9.53
2018-12-21T07:46:08.030Z,9.58
2018-12-21T07:47:08.057Z,9.58
2018-12-21T07:48:08.085Z,9.58
2018-12-21T07:49:08.113Z,9.50
2018-12-21T07:50:08.140Z,9.53
2018-12-21T07:51:08.168Z,9.47
2018-12-21T07:52:08.199Z,9.53
2018-12-21T07:53:08.226Z,9.51
2018-12-21T07:54:08.255Z,9.54
2018-12-21T07:55:08.281Z,9.54
2018-12-21T07:56:08.309Z,9.57
2018-12-21T07:57:08.431Z,9.57
2018-12-21T07:58:08.366Z,9.53
2018-12-21T07:59:08.392Z,9.56
2018-12-21T08:00:08.421Z,9.69
2018-12-21T08:01:08.450Z,9.64
2018-12-21T08:02:08.478Z,9.68
2018-12-21T08:03:08.505Z,9.78
2018-12-21T08:04:08.533Z,9.78
2018-12-21T08:05:08.563Z,9.83
2018-12-21T08:06:08.590Z,9.71
2018-12-21T08:07:08.617Z,9.68
2018-12-21T08:08:08.645Z,9.79
2018-12-21T08:09:08.676Z,9.71
2018-12-21T08:10:08.703Z,9.68
2018-12-21T08:11:08.729Z,9.66
2018-12-21T08:12:08.757Z,9.84
2018-12-21T08:13:08.786Z,9.76
2018-12-21T08:14:08.816Z,9.81
2018-12-21T08:15:08.843Z,9.89
2018-12-21T08:16:08.871Z,9.78
2018-12-21T08:17:08.898Z,9.84
2018-12-21T08:18:08.928Z,9.84
2018-12-21T08:19:08.954Z,9.79
2018-12-21T08:20:08.984Z,9.79
2018-12-21T08:21:09.011Z,9.84
2018-12-21T08:22:09.040Z,9.93
2018-12-21T08:23:09.073Z,9.89
2018-12-21T08:24:09.094Z,9.89
2018-12-21T08:25:09.123Z,9.96
2018-12-21T08:26:09.151Z,9.93
2018-12-21T08:27:09.179Z,9.96
2018-12-21T08:28:09.208Z,10.01
2018-12-21T08:29:09.235Z,10.01
2018-12-21T08:30:09.266Z,9.94
2018-12-21T08:31:11.212Z,9.99
2018-12-21T08:32:09.319Z,9.96
2018-12-21T08:33:09.349Z,9.96
2018-12-21T08:34:09.377Z,9.97
2018-12-21T08:35:09.405Z,9.93
2018-12-21T08:36:09.433Z,10.04
2018-12-21T08:37:09.462Z,10.05
2018-12-21T08:38:09.489Z,10.14
2018-12-21T08:39:09.519Z,10.26
2018-12-21T08:40:09.544Z,10.20
2018-12-21T08:41:09.574Z,10.33
2018-12-21T08:42:09.648Z,10.30
2018-12-21T08:43:09.630Z,10.23
2018-12-21T08:44:09.658Z,10.26
2018-12-21T08:45:09.688Z,10.23
2018-12-21T08:46:09.715Z,10.30
2018-12-21T08:47:09.743Z,10.23
2018-12-21T08:48:09.773Z,10.27
2018-12-21T08:49:09.802Z,10.30
2018-12-21T08:50:09.833Z,10.44
2018-12-21T08:51:09.857Z,10.47
2018-12-21T08:52:09.982Z,10.47
2018-12-21T08:53:09.913Z,10.56
2018-12-21T08:54:09.942Z,10.47
2018-12-21T08:55:11.906Z,10.52
2018-12-21T08:56:09.999Z,10.52
2018-12-21T08:57:10.028Z,10.60
2018-12-21T08:58:10.056Z,10.60
2018-12-21T08:59:10.083Z,10.67
2018-12-21T09:00:10.112Z,10.68
2018-12-21T09:01:10.142Z,10.70
2018-12-21T09:02:10.170Z,10.76
2018-12-21T09:03:10.198Z,10.74
2018-12-21T09:04:10.228Z,10.70
2018-12-21T09:05:10.255Z,10.74
2018-12-21T09:06:18.245Z,10.79
2018-12-21T09:07:10.315Z,10.81
2018-12-21T09:08:10.339Z,10.97
2018-12-21T09:09:10.368Z,10.96
2018-12-21T09:10:10.396Z,11.14
2018-12-21T09:11:10.424Z,11.10
2018-12-21T09:12:10.451Z,10.99
2018-12-21T09:13:10.483Z,11.09
2018-12-21T09:14:10.512Z,11.14
2018-12-21T09:15:10.539Z,11.14
2018-12-21T09:16:10.567Z,11.14
2018-12-21T09:17:10.596Z,11.25
2018-12-21T09:18:10.627Z,11.28
2018-12-21T09:19:10.652Z,11.33
2018-12-21T09:20:10.682Z,11.35
2018-12-21T09:21:10.710Z,11.33
2018-12-21T09:22:10.739Z,11.29
2018-12-21T09:23:10.766Z,11.35
2018-12-21T09:24:10.796Z,11.36
2018-12-21T09:25:10.826Z,11.35
2018-12-21T09:26:10.853Z,11.47
2018-12-21T09:27:10.882Z,11.43
2018-12-21T09:28:10.911Z,11.43
2018-12-21T09:29:10.942Z,11.40
2018-12-21T09:30:10.969Z,11.43
2018-12-21T09:31:10.998Z,11.39
2018-12-21T09:32:11.026Z,11.43
2018-12-21T09:33:11.054Z,11.46
2018-12-21T09:34:11.083Z,11.35
2018-12-21T09:35:11.114Z,11.42
2018-12-21T09:36:11.141Z,11.36
2018-12-21T09:37:11.169Z,11.39
2018-12-21T09:38:11.198Z,11.40
2018-12-21T09:39:11.227Z,11.25
2018-12-21T09:40:11.255Z,11.29
2018-12-21T09:41:11.287Z,11.27
2018-12-21T09:42:11.318Z,11.29
2018-12-21T09:43:11.347Z,11.25
2018-12-21T09:44:11.373Z,11.29
2018-12-21T09:45:11.400Z,11.29
2018-12-21T09:46:11.429Z,11.14
2018-12-21T09:47:11.507Z,11.18
2018-12-21T09:48:11.492Z,11.22
2018-12-21T09:49:11.515Z,11.29
2018-12-21T09:50:11.542Z,11.27
2018-12-21T09:51:11.572Z,11.27
2018-12-21T09:52:11.603Z,11.21
2018-12-21T09:53:11.631Z,11.28
2018-12-21T09:54:11.661Z,11.32
2018-12-21T09:55:11.687Z,11.33
2018-12-21T09:56:11.716Z,11.32
2018-12-21T09:57:11.746Z,11.33
2018-12-21T09:58:11.775Z,11.39
2018-12-21T09:59:11.803Z,11.39
2018-12-21T10:00:11.831Z,11.42
2018-12-21T10:01:11.861Z,11.29
2018-12-21T10:02:11.890Z,11.28
2018-12-21T10:03:11.918Z,11.32
2018-12-21T10:04:11.948Z,11.32
2018-12-21T10:05:11.978Z,11.33
2018-12-21T10:06:12.007Z,11.27
2018-12-21T10:07:12.032Z,11.33
2018-12-21T10:08:12.063Z,11.32
2018-12-21T10:09:12.093Z,11.24
2018-12-21T10:10:12.120Z,11.28
2018-12-21T10:11:12.157Z,11.22
2018-12-21T10:12:12.179Z,11.33
2018-12-21T10:13:12.211Z,11.33
2018-12-21T10:14:12.237Z,11.32
2018-12-21T10:15:12.265Z,11.36
2018-12-21T10:16:12.294Z,11.28
2018-12-21T10:17:12.375Z,11.40
2018-12-21T10:18:12.352Z,11.44
2018-12-21T10:19:12.381Z,11.49
2018-12-21T10:20:12.409Z,11.37
2018-12-21T10:21:12.439Z,11.36
2018-12-21T10:22:12.468Z,11.46
2018-12-21T10:23:12.497Z,11.44
2018-12-21T10:24:18.473Z,11.39
2018-12-21T10:25:12.618Z,11.49
2018-12-21T10:26:12.621Z,11.44
2018-12-21T10:27:12.611Z,11.49
2018-12-21T10:28:12.644Z,11.39
2018-12-21T10:29:12.671Z,11.46
2018-12-21T10:30:12.701Z,11.46
2018-12-21T10:31:12.729Z,11.42
2018-12-21T10:32:12.757Z,11.51
2018-12-21T10:33:12.787Z,11.55
2018-12-21T10:34:12.816Z,11.65
2018-12-21T10:35:12.844Z,11.61
2018-12-21T10:36:12.873Z,11.62
2018-12-21T10:37:12.905Z,11.62
2018-12-21T10:38:12.933Z,11.57
2018-12-21T10:39:12.961Z,11.60
2018-12-21T10:40:12.991Z,11.57
2018-12-21T10:41:13.089Z,11.62
2018-12-21T10:42:13.048Z,11.58
2018-12-21T10:43:13.076Z,11.52
2018-12-21T10:44:13.107Z,11.51
2018-12-21T10:45:13.135Z,11.54
2018-12-21T10:46:13.166Z,11.44
2018-12-21T10:47:13.192Z,11.44
2018-12-21T10:48:13.223Z,11.49
2018-12-21T10:49:13.252Z,11.58
2018-12-21T10:50:13.280Z,11.64
2018-12-21T10:51:13.308Z,11.61
2018-12-21T10:52:13.338Z,11.65
2018-12-21T10:53:13.367Z,11.65
2018-12-21T10:54:13.396Z,11.70
2018-12-21T10:55:13.424Z,11.73
2018-12-21T10:56:13.457Z,11.65
2018-12-21T10:57:13.485Z,11.67
2018-12-21T10:58:13.512Z,11.65
2018-12-21T10:59:20.909Z,11.83
2018-12-21T11:00:13.570Z,11.83
2018-12-21T11:01:13.598Z,11.76
2018-12-21T11:02:13.628Z,11.72
2018-12-21T11:03:13.656Z,11.70
2018-12-21T11:04:13.686Z,11.75
2018-12-21T11:05:14.841Z,11.65
2018-12-21T11:06:13.831Z,11.67
2018-12-21T11:07:13.773Z,11.60
2018-12-21T11:08:13.803Z,11.64
2018-12-21T11:09:13.831Z,11.67
2018-12-21T11:10:13.861Z,11.64
2018-12-21T11:11:13.889Z,11.67
2018-12-21T11:12:13.918Z,11.67
2018-12-21T11:13:13.999Z,11.65
2018-12-21T11:14:13.978Z,11.64
2018-12-21T11:15:14.005Z,11.67
2018-12-21T11:16:14.033Z,11.70
2018-12-21T11:17:14.063Z,11.64
2018-12-21T11:18:14.092Z,11.67
2018-12-21T11:19:14.119Z,11.65
2018-12-21T11:20:14.150Z,11.62
2018-12-21T11:21:14.181Z,11.65
2018-12-21T11:22:14.210Z,11.64
2018-12-21T11:23:14.238Z,11.62
2018-12-21T11:24:14.266Z,11.65
2018-12-21T11:25:14.295Z,11.65
2018-12-21T11:26:14.325Z,11.52
2018-12-21T11:27:14.403Z,11.60
2018-12-21T11:28:14.383Z,11.51
2018-12-21T11:29:14.411Z,11.47
2018-12-21T11:30:14.442Z,11.39
2018-12-21T11:31:14.470Z,11.40
2018-12-21T11:32:14.499Z,11.42
2018-12-21T11:33:14.529Z,11.39
2018-12-21T11:34:14.559Z,11.43
2018-12-21T11:35:14.584Z,11.42
2018-12-21T11:36:14.613Z,11.43
2018-12-21T11:37:14.643Z,11.43
2018-12-21T11:38:14.672Z,11.51
2018-12-21T11:39:14.864Z,11.47
2018-12-21T11:40:14.731Z,11.47
2018-12-21T11:41:14.760Z,11.51
2018-12-21T11:42:14.788Z,11.39
2018-12-21T11:43:14.817Z,11.46
2018-12-21T11:44:14.850Z,11.43
2018-12-21T11:45:14.874Z,11.44
2018-12-21T11:46:14.904Z,11.40
2018-12-21T11:47:14.936Z,11.33
2018-12-21T11:48:14.963Z,11.44
2018-12-21T11:49:14.992Z,11.39
2018-12-21T11:50:15.019Z,11.43
2018-12-21T11:51:15.048Z,11.44
2018-12-21T11:52:15.176Z,11.44
2018-12-21T11:53:15.107Z,11.47
2018-12-21T11:54:15.136Z,11.49
2018-12-21T11:55:15.164Z,11.46
2018-12-21T11:56:15.194Z,11.47
2018-12-21T11:57:15.224Z,11.49
2018-12-21T11:58:15.252Z,11.42
2018-12-21T11:59:15.281Z,11.49
2018-12-21T12:00:15.309Z,11.44
2018-12-21T12:01:15.339Z,11.39
2018-12-21T12:02:19.496Z,11.47
2018-12-21T12:03:15.396Z,11.46
2018-12-21T12:04:15.425Z,11.47
2018-12-21T12:05:15.455Z,11.46
2018-12-21T12:06:15.483Z,11.51
2018-12-21T12:07:15.512Z,11.58
2018-12-21T12:08:15.541Z,11.57
2018-12-21T12:09:15.572Z,11.61
2018-12-21T12:10:15.600Z,11.61
2018-12-21T12:11:15.628Z,11.61
2018-12-21T12:12:15.659Z,11.64
2018-12-21T12:13:15.690Z,11.61
2018-12-21T12:14:15.716Z,11.67
2018-12-21T12:15:15.749Z,11.64
2018-12-21T12:16:15.774Z,11.70
2018-12-21T12:17:15.803Z,11.80
2018-12-21T12:18:15.885Z,11.78
2018-12-21T12:19:15.861Z,11.79
2018-12-21T12:20:15.897Z,11.73
2018-12-21T12:21:15.919Z,11.86
2018-12-21T12:22:15.950Z,11.85
2018-12-21T12:23:15.978Z,11.85
2018-12-21T12:24:16.006Z,11.79
2018-12-21T12:25:16.037Z,11.73
2018-12-21T12:26:16.065Z,11.62
2018-12-21T12:27:16.093Z,11.65
2018-12-21T12:28:16.124Z,11.67
2018-12-21T12:29:16.153Z,11.65
2018-12-21T12:30:16.181Z,11.64
2018-12-21T12:31:16.212Z,11.64
2018-12-21T12:32:16.241Z,11.62
2018-12-21T12:33:16.269Z,11.67
2018-12-21T12:34:16.298Z,11.70
2018-12-21T12:35:16.328Z,11.64
2018-12-21T12:36:16.357Z,11.65
2018-12-21T12:37:16.386Z,11.65
2018-12-21T12:38:16.415Z,11.62
2018-12-21T12:39:16.445Z,11.69
2018-12-21T12:40:16.476Z,11.65
2018-12-21T12:41:16.507Z,11.62
2018-12-21T12:42:16.536Z,11.62
2018-12-21T12:43:16.561Z,11.76
2018-12-21T12:44:16.591Z,11.82
2018-12-21T12:45:16.621Z,11.85
2018-12-21T12:46:16.651Z,11.80
2018-12-21T12:47:16.680Z,11.79
2018-12-21T12:48:16.711Z,11.86
2018-12-21T12:49:16.738Z,11.94
2018-12-21T12:50:16.767Z,11.94
2018-12-21T12:51:16.796Z,11.96
2018-12-21T12:52:16.827Z,11.94
2018-12-21T12:53:16.856Z,11.88
2018-12-21T12:54:16.885Z,11.95
2018-12-21T12:55:16.913Z,11.91
2018-12-21T12:56:16.944Z,11.88
2018-12-21T12:57:16.979Z,11.95
2018-12-21T12:58:17.001Z,11.95
2018-12-21T12:59:17.033Z,12.09
2018-12-21T13:00:17.111Z,12.09
2018-12-21T13:01:17.111Z,12.07
2018-12-21T13:02:17.138Z,12.09
2018-12-21T13:03:17.164Z,12.04
2018-12-21T13:04:17.197Z,12.01
2018-12-21T13:05:17.208Z,12.02